Time;durP1;ratioP1;P1;durP2;ratioP2;P2;SDS_P1;SDS_P2;PMS_P1;PMS_P2;Temp;Humidity;BMP_temperature;BMP_pressure;BME280_temperature;BME280_humidity;BME280_pressure;Samples;Min_cycle;Max_cycle;Signal;HPM_P1;HPM_P2
2022/05/11 00:01:00;;;;;;;;;;;;;;;16.32;50.91;99859.22;5403830;26;34802;-90
2022/05/11 00:03:31;;;;;;;;;;;;;;;16.16;51.26;99853.69;5404906;26;34057;-90
2022/05/11 00:05:59;;;;;;;;;;;;;;;16.46;50.67;99850.91;5409987;26;32718;-90
2022/05/11 00:08:27;;;;;;;;;;;;;;;16.42;50.80;99851.91;5403915;26;34002;-90
2022/05/11 00:10:56;;;;;;;;;;;;;;;16.44;50.77;99850.09;5404484;26;34970;-90
2022/05/11 00:13:25;;;;;;;;;;;;;;;16.57;50.53;99848.75;5404506;26;35020;-90
2022/05/11 00:15:56;;;;;;;;;;;;;;;16.43;51.13;99851.03;5403931;26;34245;-90
2022/05/11 00:18:25;;;;;;;;;;;;;;;16.51;50.86;99850.75;5410370;26;33966;-90
2022/05/11 00:20:55;;;;;;;;;;;;;;;16.39;51.16;99850.25;5404713;26;33580;-91
2022/05/11 00:23:23;;;;;;;;;;;;;;;16.46;51.02;99850.06;5404668;26;34559;-90
2022/05/11 00:25:54;;;;;;;;;;;;;;;16.30;51.33;99853.19;5404611;26;33135;-90
2022/05/11 00:28:24;;;;;;;;;;;;;;;16.23;51.80;99843.81;5404575;26;33924;-90
2022/05/11 00:30:52;;;;;;;;;;;;;;;16.28;51.96;99851.53;5404246;26;34976;-90
2022/05/11 00:33:23;;;;;;;;;;;;;;;16.17;51.97;99844.91;5409885;26;34322;-90
2022/05/11 00:35:52;;;;;;;;;;;;;;;16.19;51.69;99848.31;5404825;26;33779;-90
2022/05/11 00:38:23;;;;;;;;;;;;;;;16.21;51.62;99845.62;5403814;26;34805;-90
2022/05/11 00:40:52;;;;;;;;;;;;;;;16.29;51.28;99848.03;5403579;26;34354;-90
2022/05/11 00:43:28;;;;;;;;;;;;;;;16.18;51.46;99841.37;5403917;26;34350;-90
2022/05/11 00:45:59;;;;;;;;;;;;;;;16.14;51.74;99845.00;5410343;26;34274;-90
2022/05/11 00:51:14;;;;;;;;;;;;;;;16.16;51.56;99851.06;5404424;26;33607;-90
2022/05/11 00:53:45;;;;;;;;;;;;;;;16.28;51.35;99855.00;5404398;26;34760;-90
2022/05/11 00:56:14;;;;;;;;;;;;;;;16.25;51.27;99849.03;5383803;26;32166;-90
2022/05/11 00:58:43;;;;;;;;;;;;;;;16.24;51.59;99844.69;5403504;26;34561;-90
2022/05/11 01:01:11;;;;;;;;;;;;;;;16.12;51.76;99845.97;5409474;26;34648;-90
2022/05/11 01:03:41;;;;;;;;;;;;;;;16.23;51.45;99845.59;5403861;26;34111;-90
2022/05/11 01:06:09;;;;;;;;;;;;;;;16.11;51.60;99839.84;5403807;26;34355;-90
2022/05/11 01:08:38;;;;;;;;;;;;;;;15.93;52.03;99838.72;5383853;26;34695;-90
2022/05/11 01:11:08;;;;;;;;;;;;;;;15.99;51.84;99843.78;5403352;26;34287;-90
2022/05/11 01:13:37;;;;;;;;;;;;;;;16.02;51.91;99842.81;5410054;26;33758;-91
2022/05/11 01:16:05;;;;;;;;;;;;;;;16.07;51.72;99834.78;5404435;26;33305;-89
2022/05/11 01:18:34;;;;;;;;;;;;;;;16.05;51.84;99842.69;5404772;26;34161;-90
2022/05/11 01:21:08;;;;;;;;;;;;;;;16.19;51.45;99842.25;5382697;26;33243;-90
2022/05/11 01:23:39;;;;;;;;;;;;;;;16.17;51.61;99847.53;5404431;26;34588;-90
2022/05/11 01:26:11;;;;;;;;;;;;;;;15.99;52.15;99843.78;5404262;26;33239;-90
2022/05/11 01:28:41;;;;;;;;;;;;;;;15.91;52.47;99837.06;5409169;26;34274;-91
2022/05/11 01:31:10;;;;;;;;;;;;;;;15.92;52.24;99844.88;5404400;26;34287;-91
2022/05/11 01:33:39;;;;;;;;;;;;;;;15.93;52.17;99843.94;5405008;26;35055;-90
2022/05/11 01:36:10;;;;;;;;;;;;;;;15.70;52.89;99857.75;5404635;26;33631;-90
2022/05/11 01:38:39;;;;;;;;;;;;;;;15.59;53.06;99852.00;5404207;26;34637;-90
2022/05/11 01:41:09;;;;;;;;;;;;;;;15.64;52.99;99851.84;5409859;26;34206;-91
2022/05/11 01:43:39;;;;;;;;;;;;;;;15.77;52.67;99856.66;5404831;26;34276;-90
2022/05/11 01:46:08;;;;;;;;;;;;;;;15.92;52.26;99855.34;5404140;26;32998;-90
2022/05/11 01:48:37;;;;;;;;;;;;;;;15.92;52.23;99849.22;5404059;26;34586;-90
2022/05/11 01:51:05;;;;;;;;;;;;;;;15.90;52.52;99848.41;5403579;26;35099;-90
2022/05/11 01:53:34;;;;;;;;;;;;;;;15.91;52.72;99847.53;5409975;26;34550;-90
2022/05/11 01:56:06;;;;;;;;;;;;;;;15.96;52.56;99848.22;5409982;26;33329;-91
2022/05/11 01:58:34;;;;;;;;;;;;;;;15.76;53.22;99849.72;5403321;26;34305;-91
2022/05/11 02:01:05;;;;;;;;;;;;;;;15.77;53.40;99851.44;5403863;26;33875;-90
2022/05/11 02:03:34;;;;;;;;;;;;;;;15.52;54.20;99847.84;5403836;26;34604;-90
2022/05/11 02:08:48;;;;;;;;;;;;;;;15.67;53.78;99849.97;5409909;26;33673;-90
2022/05/11 02:11:17;;;;;;;;;;;;;;;15.69;53.61;99847.34;5403885;26;34923;-90
2022/05/11 02:13:49;;;;;;;;;;;;;;;15.57;53.79;99838.97;5403747;26;33980;-91
2022/05/11 02:16:19;;;;;;;;;;;;;;;15.57;53.88;99845.94;5403894;26;33020;-91
2022/05/11 02:18:47;;;;;;;;;;;;;;;15.63;53.55;99850.13;5403932;26;34733;-90
2022/05/11 02:21:18;;;;;;;;;;;;;;;15.67;53.39;99849.13;5405660;26;35231;-90
2022/05/11 02:23:50;;;;;;;;;;;;;;;15.69;53.34;99852.56;5410147;26;34249;-90
2022/05/11 02:26:20;;;;;;;;;;;;;;;15.63;53.72;99842.28;5407507;26;32925;-90
2022/05/11 02:28:49;;;;;;;;;;;;;;;15.63;53.80;99850.97;5403655;26;34128;-90
2022/05/11 02:31:18;;;;;;;;;;;;;;;15.75;53.11;99845.41;5383490;26;32630;-90
2022/05/11 02:33:47;;;;;;;;;;;;;;;15.57;53.64;99845.94;5404502;26;33425;-90
2022/05/11 02:36:16;;;;;;;;;;;;;;;15.47;54.25;99844.53;5409666;26;33385;-90
2022/05/11 02:38:44;;;;;;;;;;;;;;;15.55;54.13;99847.75;5403511;26;33779;-90
2022/05/11 02:41:13;;;;;;;;;;;;;;;15.54;53.97;99840.81;5403149;26;33948;-90
2022/05/11 02:43:42;;;;;;;;;;;;;;;15.51;54.14;99838.28;5405986;26;34087;-90
2022/05/11 02:46:11;;;;;;;;;;;;;;;15.50;54.16;99839.19;5404865;26;33487;-90
2022/05/11 02:48:41;;;;;;;;;;;;;;;15.52;54.14;99840.87;5411236;26;33644;-90
2022/05/11 02:51:09;;;;;;;;;;;;;;;15.38;54.62;99836.97;5403886;26;34609;-90
2022/05/11 02:53:44;;;;;;;;;;;;;;;15.38;54.60;99834.34;5405385;26;33546;-90
2022/05/11 02:56:13;;;;;;;;;;;;;;;15.63;53.82;99840.50;5405180;26;33967;-89
2022/05/11 02:58:41;;;;;;;;;;;;;;;15.58;54.14;99840.69;5405082;26;34984;-91
2022/05/11 03:01:12;;;;;;;;;;;;;;;15.60;54.00;99838.00;5404051;26;33723;-90
2022/05/11 03:03:42;;;;;;;;;;;;;;;15.52;54.35;99840.00;5410380;26;34999;-89
2022/05/11 03:06:10;;;;;;;;;;;;;;;15.51;54.51;99838.28;5404741;26;33538;-90
2022/05/11 03:08:39;;;;;;;;;;;;;;;15.51;54.57;99843.50;5404463;26;34945;-89
2022/05/11 03:11:08;;;;;;;;;;;;;;;15.52;54.32;99832.16;5404967;26;34645;-90
2022/05/11 03:13:36;;;;;;;;;;;;;;;15.44;54.68;99840.25;5405143;26;34652;-90
2022/05/11 03:16:05;;;;;;;;;;;;;;;15.50;54.67;99844.44;5410607;26;33011;-90
2022/05/11 03:18:34;;;;;;;;;;;;;;;15.46;54.64;99840.19;5404336;26;33545;-90
2022/05/11 03:21:03;;;;;;;;;;;;;;;15.49;54.66;99838.34;5405093;26;34301;-90
2022/05/11 03:23:32;;;;;;;;;;;;;;;15.27;55.35;99838.16;5402221;26;34709;-90
2022/05/11 03:26:01;;;;;;;;;;;;;;;15.50;54.53;99839.19;5404705;26;33670;-91
2022/05/11 03:28:30;;;;;;;;;;;;;;;15.38;54.99;99837.81;5410534;26;33817;-89
2022/05/11 03:30:58;;;;;;;;;;;;;;;15.41;54.91;99839.47;5404572;26;35101;-90
2022/05/11 03:36:14;;;;;;;;;;;;;;;15.69;54.21;99842.94;5404859;26;33515;-90
2022/05/11 03:38:43;;;;;;;;;;;;;;;15.59;54.86;99852.00;5404917;26;34538;-90
2022/05/11 03:41:11;;;;;;;;;;;;;;;15.66;54.53;99857.91;5405767;26;34985;-90
2022/05/11 03:43:40;;;;;;;;;;;;;;;15.52;55.10;99855.72;5410322;26;34250;-91
2022/05/11 03:46:15;;;;;;;;;;;;;;;15.74;54.48;99856.75;5404916;26;33717;-90
2022/05/11 03:48:43;;;;;;;;;;;;;;;15.64;54.88;99863.16;5404984;26;34918;-89
2022/05/11 03:51:12;;;;;;;;;;;;;;;15.73;54.71;99865.53;5403717;26;33889;-90
2022/05/11 03:53:44;;;;;;;;;;;;;;;15.74;54.55;99862.00;5403960;26;34846;-90
2022/05/11 03:56:12;;;;;;;;;;;;;;;15.75;54.73;99866.34;5410996;26;32884;-91
2022/05/11 03:58:41;;;;;;;;;;;;;;;15.74;54.69;99864.63;5405302;26;34781;-90
2022/05/11 04:01:09;;;;;;;;;;;;;;;15.81;54.65;99864.44;5404123;26;34192;-90
2022/05/11 04:03:38;;;;;;;;;;;;;;;15.70;54.97;99862.13;5404040;26;34750;-90
2022/05/11 04:06:07;;;;;;;;;;;;;;;15.84;54.78;99862.56;5404366;26;34040;-90
2022/05/11 04:08:35;;;;;;;;;;;;;;;16.10;54.16;99866.09;5406432;26;34363;-90
2022/05/11 04:11:05;;;;;;;;;;;;;;;16.20;53.52;99868.34;5410689;26;34811;-91
2022/05/11 04:13:34;;;;;;;;;;;;;;;16.09;54.40;99869.59;5404106;26;33779;-90
2022/05/11 04:16:02;;;;;;;;;;;;;;;16.08;54.36;99871.37;5404879;26;33370;-90
2022/05/11 04:18:31;;;;;;;;;;;;;;;16.11;54.28;99873.88;5404044;26;34512;-90
2022/05/11 04:20:59;;;;;;;;;;;;;;;16.19;54.36;99871.87;5405199;26;33423;-90
2022/05/11 04:23:29;;;;;;;;;;;;;;;16.23;54.09;99875.25;5409826;26;35000;-89
2022/05/11 04:25:57;;;;;;;;;;;;;;;16.40;53.61;99878.13;5405118;26;34151;-90
2022/05/11 04:28:27;;;;;;;;;;;;;;;16.42;53.55;99880.72;5404563;26;34929;-90
2022/05/11 04:31:00;;;;;;;;;;;;;;;16.39;53.47;99876.44;5404303;26;34239;-90
2022/05/11 04:33:29;;;;;;;;;;;;;;;16.62;53.03;99877.41;5403349;26;33968;-90
2022/05/11 04:35:57;;;;;;;;;;;;;;;16.68;52.71;99881.59;5409064;26;33347;-90
2022/05/11 04:38:25;;;;;;;;;;;;;;;16.93;52.00;99876.34;5404007;26;34204;-90
2022/05/11 04:40:54;;;;;;;;;;;;;;;17.11;51.48;99878.31;5404165;26;33874;-90
2022/05/11 04:43:23;;;;;;;;;;;;;;;17.86;49.55;99880.69;5403802;26;34830;-90
2022/05/11 04:45:53;;;;;;;;;;;;;;;18.21;48.81;99881.00;5403506;26;33262;-90
2022/05/11 04:48:21;;;;;;;;;;;;;;;18.72;47.21;99882.31;5409696;26;34477;-90
2022/05/11 04:50:50;;;;;;;;;;;;;;;19.18;46.03;99879.44;5404328;26;34927;-92
2022/05/11 04:53:18;;;;;;;;;;;;;;;19.68;44.64;99878.91;5403867;26;34710;-91
2022/05/11 04:55:47;;;;;;;;;;;;;;;20.46;43.10;99879.44;5372094;26;862968;-91
2022/05/11 04:58:16;;;;;;;;;;;;;;;21.06;41.88;99876.38;5404172;26;34795;-91
2022/05/11 05:00:44;;;;;;;;;;;;;;;21.63;40.78;99886.50;5405549;26;33917;-91
2022/05/11 05:03:14;;;;;;;;;;;;;;;22.25;39.35;99878.56;5409363;26;33890;-91
2022/05/11 05:05:44;;;;;;;;;;;;;;;22.73;37.92;99880.09;5403622;26;33613;-91
2022/05/11 05:08:13;;;;;;;;;;;;;;;23.06;37.01;99883.47;5403994;26;34044;-92
2022/05/11 05:10:42;;;;;;;;;;;;;;;23.28;37.02;99882.97;5403973;26;33889;-91
2022/05/11 05:13:12;;;;;;;;;;;;;;;23.50;36.25;99887.75;5405638;26;33561;-91
2022/05/11 05:15:42;;;;;;;;;;;;;;;23.60;35.84;99892.34;5410429;26;34970;-91
2022/05/11 05:18:11;;;;;;;;;;;;;;;23.58;37.02;99898.69;5403670;26;33827;-91
2022/05/11 05:20:45;;;;;;;;;;;;;;;23.57;37.32;99887.25;5405272;26;33808;-91
2022/05/11 05:23:13;;;;;;;;;;;;;;;23.62;37.71;99886.97;5404623;26;34244;-92
2022/05/11 05:25:42;;;;;;;;;;;;;;;23.59;37.42;99895.13;5403987;26;33424;-92
2022/05/11 05:31:09;;;;;;;;;;;;;;;23.61;37.95;99890.56;5410401;26;34017;-91
2022/05/11 05:33:39;;;;;;;;;;;;;;;23.56;38.30;99884.72;5405212;26;34291;-91
2022/05/11 05:36:09;;;;;;;;;;;;;;;23.48;38.74;99887.84;5403195;26;33430;-91
2022/05/11 05:38:38;;;;;;;;;;;;;;;23.48;38.43;99890.50;5404019;26;34278;-91
2022/05/11 05:41:07;;;;;;;;;;;;;;;23.40;38.83;99896.28;5403991;26;34771;-93
2022/05/11 05:43:35;;;;;;;;;;;;;;;23.32;39.23;99898.56;5408762;26;34973;-89
2022/05/11 05:46:06;;;;;;;;;;;;;;;23.29;39.15;99893.44;5407807;26;33417;-90
2022/05/11 05:48:35;;;;;;;;;;;;;;;23.34;39.42;99895.81;5403821;26;33795;-93
2022/05/11 05:51:05;;;;;;;;;;;;;;;23.41;38.73;99891.81;5403503;26;33843;-90
2022/05/11 05:53:35;;;;;;;;;;;;;;;23.59;38.16;99889.81;5404073;26;34731;-90
2022/05/11 05:56:06;;;;;;;;;;;;;;;23.72;37.45;99896.00;5404798;26;33293;-91
2022/05/11 05:58:35;;;;;;;;;;;;;;;23.83;37.28;99892.72;5409818;26;33743;-91
2022/05/11 06:01:03;;;;;;;;;;;;;;;23.78;36.55;99889.53;5403636;26;33935;-91
2022/05/11 06:03:35;;;;;;;;;;;;;;;23.78;37.28;99887.72;5403807;26;35078;-92
2022/05/11 06:06:08;;;;;;;;;;;;;;;23.81;36.82;99890.16;5403589;26;33445;-91
2022/05/11 06:08:38;;;;;;;;;;;;;;;23.61;36.26;99886.13;5404375;26;34798;-91
2022/05/11 06:11:07;;;;;;;;;;;;;;;23.43;36.70;99890.78;5409950;26;34553;-91
2022/05/11 06:13:39;;;;;;;;;;;;;;;23.35;36.48;99895.72;5403691;26;34810;-91
2022/05/11 06:16:09;;;;;;;;;;;;;;;22.93;37.07;99896.53;5402529;26;33377;-91
2022/05/11 06:18:41;;;;;;;;;;;;;;;22.84;37.70;99892.69;5403047;26;34181;-91
2022/05/11 06:21:10;;;;;;;;;;;;;;;23.07;36.44;99898.38;5403911;26;34632;-90
2022/05/11 06:23:40;;;;;;;;;;;;;;;22.63;37.70;99901.91;5403790;26;34242;-91
2022/05/11 06:26:09;;;;;;;;;;;;;;;22.65;37.42;99898.22;5409775;26;34206;-90
2022/05/11 06:28:39;;;;;;;;;;;;;;;22.67;37.51;99896.34;5403563;26;34143;-90
2022/05/11 06:31:23;;;;;;;;;;;;;;;22.83;36.39;99890.97;5403770;26;33870;-90
2022/05/11 06:33:55;;;;;;;;;;;;;;;22.64;37.32;99893.00;5404181;26;34016;-90
2022/05/11 06:36:24;;;;;;;;;;;;;;;22.67;37.12;99892.84;5403634;26;33061;-90
2022/05/11 06:38:54;;;;;;;;;;;;;;;22.67;37.43;99890.22;5405698;26;33746;-92
2022/05/11 06:41:24;;;;;;;;;;;;;;;22.70;37.40;99890.84;5409305;26;34636;-91
2022/05/11 06:43:54;;;;;;;;;;;;;;;22.60;37.68;99889.72;5404069;26;34567;-90
2022/05/11 06:46:23;;;;;;;;;;;;;;;22.70;38.31;99890.84;5402735;26;33372;-91
2022/05/11 06:48:52;;;;;;;;;;;;;;;23.03;38.43;99889.78;5403681;26;33949;-91
2022/05/11 06:51:21;;;;;;;;;;;;;;;23.11;37.71;99903.38;5403553;26;35165;-91
2022/05/11 06:59:40;;;;;;;;;;;;;;;23.46;36.35;99889.72;5313393;27;34871;-91
2022/05/11 07:02:09;;;;;;;;;;;;;;;23.66;35.29;99893.78;5311349;27;33343;-90
2022/05/11 07:04:38;;;;;;;;;;;;;;;23.55;35.44;99898.91;5309791;27;34090;-91
2022/05/11 07:07:06;;;;;;;;;;;;;;;23.23;37.00;99893.00;5309267;27;32974;-91
2022/05/11 07:09:35;;;;;;;;;;;;;;;23.54;35.91;99898.06;5308851;27;33340;-91
2022/05/11 07:12:20;;;;;;;;;;;;;;;23.76;35.93;99889.59;5315634;27;35140;-90
2022/05/11 07:14:49;;;;;;;;;;;;;;;23.71;35.85;99894.31;5310482;27;34936;-90
2022/05/11 07:17:25;;;;;;;;;;;;;;;23.73;35.08;99889.81;5304561;27;33696;-91
2022/05/11 07:19:53;;;;;;;;;;;;;;;23.82;36.13;99891.00;5307832;27;34049;-90
2022/05/11 07:22:22;;;;;;;;;;;;;;;23.47;35.87;99893.25;5308051;27;34443;-91
2022/05/11 07:24:50;;;;;;;;;;;;;;;23.64;35.75;99898.31;5312643;27;33543;-91
2022/05/11 07:27:21;;;;;;;;;;;;;;;24.15;34.69;99898.53;5336351;26;34120;-90
2022/05/11 07:29:53;;;;;;;;;;;;;;;24.04;34.54;99890.44;5401277;26;34610;-90
2022/05/11 07:32:22;;;;;;;;;;;;;;;24.19;34.62;99889.44;5402568;26;34621;-90
2022/05/11 07:34:51;;;;;;;;;;;;;;;23.97;33.41;99890.03;5404045;26;34037;-90
2022/05/11 07:37:19;;;;;;;;;;;;;;;24.26;34.38;99890.72;5403775;26;33562;-90
2022/05/11 07:39:48;;;;;;;;;;;;;;;24.06;33.77;99891.19;5410318;26;33905;-90
2022/05/11 07:42:16;;;;;;;;;;;;;;;24.26;33.76;99885.44;5404955;26;33945;-90
2022/05/11 07:44:46;;;;;;;;;;;;;;;24.46;32.28;99888.56;5404839;26;33952;-91
2022/05/11 07:47:15;;;;;;;;;;;;;;;24.26;32.66;99882.78;5404689;26;33918;-91
2022/05/11 07:49:43;;;;;;;;;;;;;;;24.13;33.17;99889.84;5404581;26;33866;-90
2022/05/11 07:52:12;;;;;;;;;;;;;;;24.37;34.55;99884.69;5410838;26;34240;-90
2022/05/11 07:54:41;;;;;;;;;;;;;;;24.36;34.03;99890.12;5404518;26;34118;-90
2022/05/11 07:59:57;;;;;;;;;;;;;;;24.27;33.08;99886.28;5404319;26;34204;-91
2022/05/11 08:02:27;;;;;;;;;;;;;;;24.29;33.29;99892.34;5407481;26;34106;-90
2022/05/11 08:04:58;;;;;;;;;;;;;;;24.51;33.63;99885.63;5403490;26;34122;-91
2022/05/11 08:07:27;;;;;;;;;;;;;;;24.55;32.92;99885.31;5410293;26;32757;-90
2022/05/11 08:09:59;;;;;;;;;;;;;;;24.75;33.06;99896.34;5404608;26;34097;-91
2022/05/11 08:12:27;;;;;;;;;;;;;;;24.75;32.07;99891.88;5403511;26;34291;-90
2022/05/11 08:14:57;;;;;;;;;;;;;;;24.73;32.74;99891.12;5403427;26;35034;-91
2022/05/11 08:17:28;;;;;;;;;;;;;;;24.88;31.49;99881.25;5404393;26;33552;-91
2022/05/11 08:19:57;;;;;;;;;;;;;;;24.59;33.50;99885.94;5409813;26;34313;-91
2022/05/11 08:22:26;;;;;;;;;;;;;;;24.62;31.23;99885.72;5407064;26;33664;-91
2022/05/11 08:24:56;;;;;;;;;;;;;;;24.82;31.32;99881.72;5404685;26;33668;-91
2022/05/11 08:27:26;;;;;;;;;;;;;;;24.96;31.42;99889.56;5404447;26;33322;-90
2022/05/11 08:35:58;;;;;;;;;;;;;;;24.99;32.27;99880.53;5401869;26;34573;-91
2022/05/11 08:38:35;;;;;;;;;;;;;;;25.22;29.31;99878.91;5408034;26;33768;-90
2022/05/11 08:41:05;;;;;;;;;;;;;;;25.25;30.27;99884.00;5406939;26;34073;-91
2022/05/11 08:43:35;;;;;;;;;;;;;;;25.15;30.32;99889.09;5401878;26;34396;-90
2022/05/11 08:46:08;;;;;;;;;;;;;;;25.19;30.65;99881.81;5401649;26;33915;-91
2022/05/11 08:48:39;;;;;;;;;;;;;;;25.17;29.42;99886.34;5402010;26;34032;-92
2022/05/11 08:51:09;;;;;;;;;;;;;;;25.09;29.39;99882.41;5402083;26;33465;-92
2022/05/11 08:53:38;;;;;;;;;;;;;;;24.88;29.74;99886.56;5406929;26;34522;-91
2022/05/11 08:56:10;;;;;;;;;;;;;;;25.22;29.39;99879.75;5402671;26;34608;-93
2022/05/11 08:58:41;;;;;;;;;;;;;;;25.39;29.73;99880.38;5402032;26;32748;-92
2022/05/11 09:01:13;;;;;;;;;;;;;;;25.58;29.98;99887.88;5402737;26;34663;-93
2022/05/11 09:03:43;;;;;;;;;;;;;;;26.02;28.08;99881.97;5401865;26;33950;-91
2022/05/11 09:06:17;;;;;;;;;;;;;;;25.86;26.57;99878.75;5402071;26;34624;-91
2022/05/11 09:08:46;;;;;;;;;;;;;;;25.51;28.47;99884.78;5408195;26;33309;-92
2022/05/11 09:11:16;;;;;;;;;;;;;;;25.86;27.70;99874.28;5402203;26;34285;-91
2022/05/11 09:13:44;;;;;;;;;;;;;;;25.91;28.96;99868.62;5401496;26;33521;-91
2022/05/11 09:16:22;;;;;;;;;;;;;;;26.39;26.84;99877.38;5403295;26;33721;-91
2022/05/11 09:18:51;;;;;;;;;;;;;;;26.12;27.43;99868.81;5404014;26;33233;-91
2022/05/11 09:21:26;;;;;;;;;;;;;;;25.41;28.20;99873.16;5409007;26;33755;-91
2022/05/11 09:24:08;;;;;;;;;;;;;;;25.73;29.50;99876.97;5410191;26;33339;-91
2022/05/11 09:26:38;;;;;;;;;;;;;;;25.93;26.60;99869.38;5405028;26;34919;-91
2022/05/11 09:29:15;;;;;;;;;;;;;;;25.73;28.26;99870.78;5404560;26;32947;-91
2022/05/11 09:31:45;;;;;;;;;;;;;;;25.33;28.43;99871.87;5404909;26;34005;-91
2022/05/11 09:34:15;;;;;;;;;;;;;;;25.78;28.01;99873.97;5404719;26;33959;-91
2022/05/11 09:37:00;;;;;;;;;;;;;;;25.25;28.14;99871.59;5403742;26;35053;-91
2022/05/11 09:39:28;;;;;;;;;;;;;;;25.64;28.24;99869.69;5406832;26;33973;-91
2022/05/11 09:42:01;;;;;;;;;;;;;;;26.02;27.14;99871.31;5402275;26;34531;-91
2022/05/11 09:44:39;;;;;;;;;;;;;;;26.35;26.46;99869.75;5402492;26;33698;-91
2022/05/11 09:47:22;;;;;;;;;;;;;;;26.36;27.33;99871.44;5402650;26;33949;-91
2022/05/11 09:49:51;;;;;;;;;;;;;;;26.57;26.67;99876.97;5401702;26;32986;-91
2022/05/11 09:52:31;;;;;;;;;;;;;;;26.36;26.20;99874.97;5401944;26;34454;-91
2022/05/11 09:55:00;;;;;;;;;;;;;;;26.56;29.56;99875.28;5408962;26;34406;-91
2022/05/11 09:57:28;;;;;;;;;;;;;;;26.79;28.16;99874.34;5403615;26;34422;-91
2022/05/11 10:00:12;;;;;;;;;;;;;;;26.85;29.60;99869.53;5404385;26;33461;-91
2022/05/11 10:02:45;;;;;;;;;;;;;;;27.22;29.19;99868.31;5404411;26;34184;-91
2022/05/11 10:05:14;;;;;;;;;;;;;;;27.38;29.57;99865.28;5404291;26;33516;-91
2022/05/11 10:07:45;;;;;;;;;;;;;;;27.30;26.85;99867.69;5403952;26;34145;-92
2022/05/11 10:10:24;;;;;;;;;;;;;;;27.29;25.62;99866.03;5410149;26;33596;-91
2022/05/11 10:12:53;;;;;;;;;;;;;;;26.92;27.16;99865.41;5405357;26;33814;-94
2022/05/11 10:23:54;;;;;;;;;;;;;;;28.13;25.98;99860.97;5404740;26;34293;-93
2022/05/11 10:26:27;;;;;;;;;;;;;;;27.45;26.18;99863.81;5404870;26;35000;-93
2022/05/11 10:28:57;;;;;;;;;;;;;;;27.40;25.60;99862.47;5406791;26;33856;-93
2022/05/11 10:31:29;;;;;;;;;;;;;;;26.66;25.99;99851.47;5388750;26;34661;-92
2022/05/11 10:34:02;;;;;;;;;;;;;;;26.95;27.16;99860.69;5402775;26;33921;-92
2022/05/11 10:36:34;;;;;;;;;;;;;;;26.84;26.71;99854.50;5403647;26;34212;-93
2022/05/11 10:39:18;;;;;;;;;;;;;;;26.86;27.10;99855.25;5404395;26;34090;-92
2022/05/11 10:41:48;;;;;;;;;;;;;;;26.63;27.60;99851.69;5404315;26;33471;-92
2022/05/11 10:44:22;;;;;;;;;;;;;;;26.73;27.22;99852.69;5405667;26;34194;-94
2022/05/11 10:46:53;;;;;;;;;;;;;;;26.97;26.92;99845.44;5408653;26;33822;-93
2022/05/11 10:49:26;;;;;;;;;;;;;;;26.98;27.02;99846.28;5404106;26;33438;-93
2022/05/11 10:51:58;;;;;;;;;;;;;;;27.09;27.18;99840.97;5407129;26;33558;-92
2022/05/11 10:54:33;;;;;;;;;;;;;;;27.23;26.81;99837.19;5404135;26;34882;-95
2022/05/11 10:57:04;;;;;;;;;;;;;;;27.60;25.24;99844.91;5403558;26;33523;-92
2022/05/11 10:59:53;;;;;;;;;;;;;;;27.13;24.24;99839.72;5408813;26;33468;-92
2022/05/11 11:02:56;;;;;;;;;;;;;;;26.99;24.31;99837.31;5401911;26;33304;-92
2022/05/11 11:05:27;;;;;;;;;;;;;;;27.10;24.04;99841.81;5409561;26;33842;-93
2022/05/11 11:08:00;;;;;;;;;;;;;;;26.93;23.89;99846.66;5404992;26;33960;-93
2022/05/11 11:10:30;;;;;;;;;;;;;;;27.24;23.83;99833.59;5403697;26;34065;-92
2022/05/11 11:13:24;;;;;;;;;;;;;;;27.45;24.01;99837.19;5404429;26;33570;-92
2022/05/11 11:15:53;;;;;;;;;;;;;;;27.48;23.19;99828.09;5405309;26;34203;-93
2022/05/11 11:18:24;;;;;;;;;;;;;;;28.21;23.26;99822.97;5389951;26;32326;-93
2022/05/11 11:20:58;;;;;;;;;;;;;;;28.45;23.19;99833.37;5406449;26;34620;-93
2022/05/11 11:23:31;;;;;;;;;;;;;;;28.85;23.02;99825.47;5405683;26;34088;-92
2022/05/11 11:26:02;;;;;;;;;;;;;;;28.73;22.79;99823.88;5405072;26;33638;-92
2022/05/11 11:28:33;;;;;;;;;;;;;;;28.26;24.16;99820.75;5405430;26;34528;-94
2022/05/11 11:31:15;;;;;;;;;;;;;;;28.34;23.94;99820.94;5405169;26;34165;-93
2022/05/11 11:34:00;;;;;;;;;;;;;;;28.39;24.73;99818.75;5410305;26;33446;-93
2022/05/11 11:36:31;;;;;;;;;;;;;;;28.66;23.75;99820.03;5409805;26;33373;-92
2022/05/11 11:39:01;;;;;;;;;;;;;;;28.91;23.49;99822.25;5406291;26;33734;-93
2022/05/11 11:41:30;;;;;;;;;;;;;;;29.20;21.40;99816.19;5404595;26;34088;-92
2022/05/11 11:43:59;;;;;;;;;;;;;;;29.26;21.74;99807.62;5405560;26;33224;-94
2022/05/11 11:46:32;;;;;;;;;;;;;;;28.96;21.68;99803.16;5404483;26;34099;-93
2022/05/11 11:49:03;;;;;;;;;;;;;;;29.55;22.25;99801.47;5390007;26;34154;-93
2022/05/11 11:51:34;;;;;;;;;;;;;;;29.91;21.20;99799.09;5404618;26;33402;-94
2022/05/11 11:54:02;;;;;;;;;;;;;;;30.35;21.01;99795.00;5404842;26;34266;-93
2022/05/11 11:56:33;;;;;;;;;;;;;;;30.24;20.71;99787.09;5405389;26;33951;-93
2022/05/11 11:59:03;;;;;;;;;;;;;;;30.78;19.92;99790.03;5405558;26;33589;-95
2022/05/11 12:01:32;;;;;;;;;;;;;;;30.74;20.32;99788.66;5405749;26;33892;-93
2022/05/11 12:04:01;;;;;;;;;;;;;;;30.62;20.74;99780.81;5389113;26;33419;-92
2022/05/11 12:15:09;;;;;;;;;;;;;;;31.14;20.49;99774.09;5405529;26;33040;-92
2022/05/11 12:17:39;;;;;;;;;;;;;;;30.90;20.46;99771.97;5405530;26;34813;-94
2022/05/11 12:20:10;;;;;;;;;;;;;;;30.85;20.64;99775.09;5404377;26;33937;-92
2022/05/11 12:22:46;;;;;;;;;;;;;;;30.57;21.14;99775.06;5409137;26;34889;-91
2022/05/11 12:25:20;;;;;;;;;;;;;;;30.82;21.33;99764.66;5405181;26;33192;-93
2022/05/11 12:27:51;;;;;;;;;;;;;;;31.24;20.72;99761.47;5404222;26;33939;-92
2022/05/11 12:30:21;;;;;;;;;;;;;;;31.67;20.57;99773.31;5404789;26;34277;-94
2022/05/11 12:32:51;;;;;;;;;;;;;;;31.26;20.05;99764.84;5405033;26;32950;-94
2022/05/11 12:35:21;;;;;;;;;;;;;;;31.29;19.84;99756.53;5404594;26;32830;-91
2022/05/11 12:37:54;;;;;;;;;;;;;;;30.90;20.05;99755.91;5409385;26;34119;-93
2022/05/11 12:40:33;;;;;;;;;;;;;;;30.66;20.72;99761.78;5404945;26;35794;-94
2022/05/11 12:43:08;;;;;;;;;;;;;;;30.22;21.10;99746.25;5404694;26;34965;-93
2022/05/11 12:45:37;;;;;;;;;;;;;;;30.27;20.74;99754.72;5405283;26;32835;-92
2022/05/11 12:48:06;;;;;;;;;;;;;;;30.11;21.16;99739.25;5404923;26;34047;-94
2022/05/11 12:50:39;;;;;;;;;;;;;;;29.98;20.77;99736.03;5407470;26;34758;-92
2022/05/11 12:53:24;;;;;;;;;;;;;;;29.49;22.00;99729.88;5410904;26;33698;-95
2022/05/11 12:55:54;;;;;;;;;;;;;;;30.25;21.16;99729.06;5405373;26;34220;-94
2022/05/11 12:58:25;;;;;;;;;;;;;;;30.57;21.62;99737.56;5384901;26;32642;-92
2022/05/11 13:00:57;;;;;;;;;;;;;;;30.22;21.70;99726.69;5405191;26;34410;-94
2022/05/11 13:03:27;;;;;;;;;;;;;;;29.98;21.68;99730.69;5405448;26;34077;-94
2022/05/11 13:05:56;;;;;;;;;;;;;;;30.09;21.15;99729.69;5406348;26;32670;-92
2022/05/11 13:08:27;;;;;;;;;;;;;;;30.08;21.19;99723.47;5409736;26;33457;-92
2022/05/11 13:10:56;;;;;;;;;;;;;;;30.09;21.93;99727.84;5402452;26;33817;-92
2022/05/11 13:13:27;;;;;;;;;;;;;;;30.02;21.92;99718.72;5404425;26;33395;-92
2022/05/11 13:16:02;;;;;;;;;;;;;;;29.71;22.31;99721.56;5404563;26;33332;-90
2022/05/11 13:18:31;;;;;;;;;;;;;;;29.99;22.11;99727.88;5404815;26;33631;-89
2022/05/11 13:21:01;;;;;;;;;;;;;;;29.70;21.40;99719.91;5410684;26;33785;-90
2022/05/11 13:23:33;;;;;;;;;;;;;;;29.94;21.92;99718.59;5401432;26;34740;-95
2022/05/11 13:26:02;;;;;;;;;;;;;;;30.32;21.07;99708.78;5402698;26;33391;-90
2022/05/11 13:28:31;;;;;;;;;;;;;;;30.64;20.50;99713.75;5404678;26;34568;-92
2022/05/11 13:31:00;;;;;;;;;;;;;;;30.63;20.68;99706.69;5404556;26;35048;-91
2022/05/11 13:33:34;;;;;;;;;;;;;;;30.94;21.11;99703.72;5408072;26;34711;-90
2022/05/11 13:36:28;;;;;;;;;;;;;;;30.98;21.31;99708.62;5409091;26;32570;-94
2022/05/11 13:39:01;;;;;;;;;;;;;;;30.78;21.32;99699.84;5381365;26;33882;-89
2022/05/11 13:41:31;;;;;;;;;;;;;;;30.93;22.18;99697.53;5403943;26;33693;-90
2022/05/11 13:44:02;;;;;;;;;;;;;;;30.86;21.44;99693.78;5383161;26;33876;-90
2022/05/11 13:49:33;;;;;;;;;;;;;;;31.70;21.50;99676.44;5404556;26;34887;-91
2022/05/11 13:52:03;;;;;;;;;;;;;;;32.05;20.04;99682.75;5403609;26;34153;-90